createdAt,value
2023-05-07T00:01:34.600Z,30.63
2023-05-07T00:04:20.698Z,29.85
2023-05-07T00:07:06.700Z,22.67
2023-05-07T00:09:52.208Z,18.02
2023-05-07T00:12:37.678Z,17.30
2023-05-07T00:15:23.061Z,15.63
2023-05-07T00:18:08.534Z,14.60
2023-05-07T00:20:54.176Z,12.60
2023-05-07T00:23:39.747Z,13.23
2023-05-07T00:26:25.613Z,12.75
2023-05-07T00:29:10.958Z,13.18
2023-05-07T00:31:56.695Z,11.65
2023-05-07T00:34:42.330Z,11.88
2023-05-07T00:37:27.965Z,10.25
2023-05-07T00:40:13.768Z,10.35
2023-05-07T00:43:00.977Z,13.80
2023-05-07T00:45:46.892Z,10.65
2023-05-07T00:48:32.838Z,10.07
2023-05-07T00:51:19.322Z,8.38
2023-05-07T00:54:04.762Z,8.07
2023-05-07T00:56:50.513Z,10.48
2023-05-07T00:59:36.673Z,9.07
2023-05-07T01:02:22.034Z,7.70
2023-05-07T01:05:10.592Z,11.73
2023-05-07T01:07:57.930Z,7.85
2023-05-07T01:10:44.500Z,10.15
2023-05-07T01:13:30.476Z,9.95
2023-05-07T01:16:15.939Z,7.28
2023-05-07T01:19:02.184Z,11.23
2023-05-07T01:21:49.476Z,8.88
2023-05-07T01:24:37.395Z,8.80
2023-05-07T01:27:22.717Z,7.93
2023-05-07T01:30:09.013Z,9.57
2023-05-07T01:33:00.715Z,7.95
2023-05-07T01:35:50.009Z,8.13
2023-05-07T01:38:38.747Z,8.82
2023-05-07T01:41:24.501Z,8.57
2023-05-07T01:44:11.128Z,6.55
2023-05-07T01:46:58.380Z,7.40
2023-05-07T01:49:44.152Z,6.88
2023-05-07T01:52:30.260Z,7.45
2023-05-07T01:55:15.936Z,8.98
2023-05-07T01:58:01.321Z,6.55
2023-05-07T02:00:47.200Z,10.05
2023-05-07T02:03:32.747Z,8.18
2023-05-07T02:06:18.395Z,8.07
2023-05-07T02:09:04.324Z,11.55
2023-05-07T02:11:50.216Z,11.07
2023-05-07T02:14:35.804Z,10.95
2023-05-07T02:17:21.360Z,12.00
2023-05-07T02:20:08.245Z,11.38
2023-05-07T02:22:53.761Z,12.10
2023-05-07T02:25:39.541Z,14.38
2023-05-07T02:28:24.792Z,12.52
2023-05-07T02:31:10.338Z,12.73
2023-05-07T02:33:55.981Z,12.77
2023-05-07T02:36:41.584Z,12.05
2023-05-07T02:39:26.960Z,13.60
2023-05-07T02:42:12.646Z,12.98
2023-05-07T02:44:58.224Z,14.25
2023-05-07T02:47:43.836Z,14.07
2023-05-07T02:50:29.487Z,12.65
2023-05-07T02:53:14.919Z,13.65
2023-05-07T02:56:02.452Z,14.63
2023-05-07T02:58:48.094Z,15.30
2023-05-07T03:01:33.613Z,13.20
2023-05-07T03:04:19.182Z,14.27
2023-05-07T03:07:04.264Z,14.18
2023-05-07T03:09:49.850Z,11.57
2023-05-07T03:12:35.868Z,13.85
2023-05-07T03:15:21.473Z,18.30
2023-05-07T03:18:07.334Z,18.75
2023-05-07T03:20:53.048Z,14.60
2023-05-07T03:23:38.953Z,13.60
2023-05-07T03:26:24.200Z,13.98
2023-05-07T03:29:09.565Z,15.43
2023-05-07T03:31:55.234Z,13.73
2023-05-07T03:34:40.829Z,17.73
2023-05-07T03:37:26.127Z,14.35
2023-05-07T03:40:13.539Z,13.90
2023-05-07T03:43:00.668Z,13.65
2023-05-07T03:45:46.660Z,14.55
2023-05-07T03:48:32.146Z,13.93
2023-05-07T03:51:18.086Z,15.52
2023-05-07T03:54:03.838Z,14.07
2023-05-07T03:56:49.427Z,13.95
2023-05-07T03:59:34.998Z,16.80
2023-05-07T04:02:20.248Z,15.15
2023-05-07T04:05:06.114Z,13.90
2023-05-07T04:07:51.755Z,14.25
2023-05-07T04:10:37.325Z,11.98
2023-05-07T04:13:23.113Z,12.30
2023-05-07T04:16:09.343Z,13.48
2023-05-07T04:18:55.074Z,13.10
2023-05-07T04:21:41.175Z,13.15
2023-05-07T04:24:27.661Z,12.52
2023-05-07T04:27:13.252Z,13.15
2023-05-07T04:29:58.951Z,12.23
2023-05-07T04:32:45.542Z,13.52
2023-05-07T04:35:32.010Z,12.98
2023-05-07T04:38:19.323Z,12.68
2023-05-07T04:41:06.374Z,13.50
2023-05-07T04:43:52.693Z,14.88
2023-05-07T04:46:38.573Z,15.68
2023-05-07T04:49:23.973Z,16.58
2023-05-07T04:52:09.568Z,14.77
2023-05-07T04:54:55.247Z,15.75
2023-05-07T04:57:41.635Z,15.32
2023-05-07T05:00:27.294Z,18.25
2023-05-07T05:03:12.979Z,15.50
2023-05-07T05:06:00.793Z,17.77
2023-05-07T05:08:46.136Z,16.85
2023-05-07T05:11:32.694Z,18.13
2023-05-07T05:14:18.585Z,20.67
2023-05-07T05:17:04.331Z,18.08
2023-05-07T05:19:49.516Z,18.15
2023-05-07T05:22:35.964Z,20.38
2023-05-07T05:25:21.471Z,19.38
2023-05-07T05:28:07.166Z,20.73
2023-05-07T05:30:52.762Z,17.90
2023-05-07T05:33:38.451Z,21.25
2023-05-07T05:36:24.266Z,20.98
2023-05-07T05:39:10.110Z,18.92
2023-05-07T05:41:55.874Z,21.15
2023-05-07T05:44:41.346Z,18.75
2023-05-07T05:47:26.876Z,17.63
2023-05-07T05:50:12.676Z,22.20
2023-05-07T05:53:00.468Z,18.70
2023-05-07T05:55:46.694Z,24.58
2023-05-07T05:58:32.320Z,21.83
2023-05-07T06:01:19.193Z,20.50
2023-05-07T06:04:04.979Z,20.90
2023-05-07T06:06:50.587Z,18.73
2023-05-07T06:09:35.759Z,21.42
2023-05-07T06:12:22.275Z,19.90
2023-05-07T06:15:08.114Z,19.08
2023-05-07T06:17:53.930Z,15.30
2023-05-07T06:20:39.864Z,16.58
2023-05-07T06:23:25.291Z,16.38
2023-05-07T06:26:11.255Z,15.02
2023-05-07T06:28:56.953Z,13.57
2023-05-07T06:31:42.537Z,13.80
2023-05-07T06:34:28.248Z,17.02
2023-05-07T06:37:13.421Z,14.85
2023-05-07T06:40:00.093Z,16.30
2023-05-07T06:42:45.799Z,14.40
2023-05-07T06:45:31.384Z,16.70
2023-05-07T06:48:17.031Z,15.15
2023-05-07T06:51:02.474Z,17.48
2023-05-07T06:53:48.149Z,17.65
2023-05-07T06:56:35.419Z,16.10
2023-05-07T06:59:21.169Z,15.88
2023-05-07T07:02:07.108Z,16.00
2023-05-07T07:04:52.566Z,16.17
2023-05-07T07:07:38.112Z,18.10
2023-05-07T07:10:24.347Z,19.73
2023-05-07T07:13:09.629Z,13.10
2023-05-07T07:15:55.157Z,15.05
2023-05-07T07:18:40.998Z,16.40
2023-05-07T07:21:26.822Z,14.13
2023-05-07T07:24:12.516Z,16.52
2023-05-07T07:26:57.886Z,15.15
2023-05-07T07:29:43.363Z,18.17
2023-05-07T07:32:29.290Z,13.98
2023-05-07T07:35:14.835Z,17.45
2023-05-07T07:38:00.166Z,15.48
2023-05-07T07:40:45.508Z,13.52
2023-05-07T07:43:31.109Z,16.13
2023-05-07T07:46:16.692Z,18.65
2023-05-07T07:49:02.152Z,14.32
2023-05-07T07:51:47.708Z,15.50
2023-05-07T07:54:33.484Z,17.33
2023-05-07T07:57:19.235Z,17.20
2023-05-07T08:00:05.520Z,14.65
2023-05-07T08:02:51.299Z,15.35
2023-05-07T08:05:37.553Z,16.08
2023-05-07T08:08:23.284Z,16.67
2023-05-07T08:11:08.810Z,16.25
2023-05-07T08:13:55.835Z,16.27
2023-05-07T08:16:41.413Z,17.58
2023-05-07T08:19:27.117Z,19.55
2023-05-07T08:22:12.975Z,15.90
2023-05-07T08:24:58.504Z,18.58
2023-05-07T08:27:45.826Z,17.38
2023-05-07T08:30:31.218Z,18.90
2023-05-07T08:33:16.851Z,15.55
2023-05-07T08:36:02.307Z,18.20
2023-05-07T08:38:47.960Z,16.85
2023-05-07T08:41:33.986Z,19.05
2023-05-07T08:44:24.333Z,16.38
2023-05-07T08:47:11.187Z,14.32
2023-05-07T08:49:57.183Z,16.85
2023-05-07T08:52:43.374Z,12.35
2023-05-07T08:55:30.381Z,14.15
2023-05-07T08:58:15.863Z,14.27
2023-05-07T09:01:07.903Z,13.48
2023-05-07T09:03:54.302Z,12.15
2023-05-07T09:06:42.893Z,9.60
2023-05-07T09:09:28.285Z,10.70
2023-05-07T09:12:13.936Z,10.82
2023-05-07T09:15:01.020Z,7.90
2023-05-07T09:17:46.765Z,8.38
2023-05-07T09:20:32.982Z,8.55
2023-05-07T09:23:18.475Z,8.07
2023-05-07T09:26:09.692Z,8.93
2023-05-07T09:28:55.324Z,10.68
2023-05-07T09:31:41.376Z,6.53
2023-05-07T09:34:27.162Z,8.63
2023-05-07T09:37:14.373Z,8.00
2023-05-07T09:39:59.630Z,6.88
2023-05-07T09:42:45.165Z,7.72
2023-05-07T09:45:30.720Z,8.02
2023-05-07T09:48:18.381Z,8.32
2023-05-07T09:51:07.421Z,7.43
2023-05-07T09:53:54.570Z,7.70
2023-05-07T09:56:42.990Z,7.22
2023-05-07T09:59:29.959Z,6.63
2023-05-07T10:02:16.894Z,6.97
2023-05-07T10:05:04.289Z,7.07
2023-05-07T10:07:51.444Z,7.60
2023-05-07T10:10:37.657Z,6.80
2023-05-07T10:13:23.473Z,9.60
2023-05-07T10:16:09.144Z,6.95
2023-05-07T10:18:56.090Z,5.43
2023-05-07T10:21:48.322Z,5.22
2023-05-07T10:24:35.200Z,8.50
2023-05-07T10:27:22.324Z,6.53
2023-05-07T10:30:13.337Z,7.18
2023-05-07T10:33:06.941Z,7.43
2023-05-07T10:35:56.792Z,9.75
2023-05-07T10:38:42.588Z,10.02
2023-05-07T10:41:28.131Z,7.30
2023-05-07T10:44:29.388Z,30.58
2023-05-07T10:47:17.917Z,8.15
2023-05-07T10:50:06.515Z,9.20
2023-05-07T10:53:20.624Z,9.10
2023-05-07T10:56:18.368Z,10.23
2023-05-07T10:59:24.782Z,11.57
2023-05-07T11:02:12.380Z,9.27
2023-05-07T11:05:20.881Z,9.50
2023-05-07T11:08:07.064Z,8.30
2023-05-07T11:10:53.948Z,8.75
2023-05-07T11:13:50.519Z,9.30
2023-05-07T11:16:37.889Z,7.85
2023-05-07T11:19:50.005Z,7.85
2023-05-07T11:22:36.688Z,10.88
2023-05-07T11:25:23.145Z,9.57
2023-05-07T11:28:12.602Z,10.98
2023-05-07T11:30:58.745Z,9.55
2023-05-07T11:33:45.507Z,9.68
2023-05-07T11:36:33.400Z,9.98
2023-05-07T11:39:37.058Z,8.70
2023-05-07T11:42:34.140Z,8.45
2023-05-07T11:45:26.575Z,10.10
2023-05-07T11:48:13.054Z,9.60
2023-05-07T11:51:07.284Z,9.10
2023-05-07T11:53:53.036Z,9.15
2023-05-07T11:56:39.817Z,8.57
2023-05-07T11:59:25.423Z,7.55
2023-05-07T12:02:11.694Z,9.25
2023-05-07T12:04:57.600Z,8.70
2023-05-07T12:07:43.078Z,7.93
2023-05-07T12:10:28.604Z,8.77
2023-05-07T12:13:25.123Z,8.82
2023-05-07T12:16:11.396Z,6.68
2023-05-07T12:18:59.881Z,9.32
2023-05-07T12:21:45.428Z,8.68
2023-05-07T12:24:46.955Z,10.32
2023-05-07T12:27:33.041Z,8.90
2023-05-07T12:30:19.113Z,15.40
2023-05-07T12:33:05.566Z,14.90
2023-05-07T12:35:51.292Z,11.43
2023-05-07T12:38:38.266Z,17.90
2023-05-07T12:41:28.111Z,10.93
2023-05-07T12:44:16.502Z,12.02
2023-05-07T12:47:05.403Z,8.68
2023-05-07T12:49:54.018Z,9.30
2023-05-07T12:53:12.994Z,10.80
2023-05-07T12:56:01.821Z,8.80
2023-05-07T12:58:50.061Z,8.68
2023-05-07T13:01:35.859Z,7.97
2023-05-07T13:04:22.256Z,8.35
2023-05-07T13:07:07.860Z,7.35
2023-05-07T13:09:53.270Z,5.78
2023-05-07T13:12:38.956Z,5.68
2023-05-07T13:15:24.739Z,11.73
2023-05-07T13:18:12.482Z,16.20
2023-05-07T13:20:58.586Z,9.27
2023-05-07T13:23:44.700Z,10.43
2023-05-07T13:26:32.306Z,7.45
2023-05-07T13:29:18.253Z,5.93
2023-05-07T13:32:03.942Z,6.25
2023-05-07T13:34:49.844Z,5.05
2023-05-07T13:37:35.771Z,4.40
2023-05-07T13:40:21.877Z,5.32
2023-05-07T13:43:07.853Z,4.47
2023-05-07T13:45:52.964Z,6.75
2023-05-07T13:48:38.493Z,8.02
2023-05-07T13:51:24.691Z,7.05
2023-05-07T13:54:10.019Z,4.75
2023-05-07T13:56:56.097Z,9.43
2023-05-07T13:59:42.301Z,5.85
2023-05-07T14:02:28.229Z,5.85
2023-05-07T14:05:14.515Z,3.78
2023-05-07T14:08:00.333Z,5.93
2023-05-07T14:10:45.933Z,10.45
2023-05-07T14:13:31.936Z,4.80
2023-05-07T14:16:17.467Z,3.38
2023-05-07T14:19:03.428Z,5.43
2023-05-07T14:21:48.746Z,5.28
2023-05-07T14:24:38.521Z,4.93
2023-05-07T14:27:24.515Z,5.90
2023-05-07T14:30:10.604Z,4.68
2023-05-07T14:32:56.335Z,4.78
2023-05-07T14:35:50.027Z,8.32
2023-05-07T14:38:35.777Z,5.57
2023-05-07T14:41:23.016Z,2.70
2023-05-07T14:44:08.351Z,4.07
2023-05-07T14:46:57.430Z,4.60
2023-05-07T14:49:46.284Z,6.93
2023-05-07T14:52:38.437Z,5.07
2023-05-07T14:55:24.158Z,3.97
2023-05-07T14:58:09.520Z,3.58
2023-05-07T15:00:54.988Z,4.22
2023-05-07T15:03:41.426Z,4.65
2023-05-07T15:06:27.861Z,2.70
2023-05-07T15:09:13.393Z,4.28
2023-05-07T15:11:59.111Z,4.28
2023-05-07T15:14:45.654Z,3.85
2023-05-07T15:17:30.856Z,5.10
2023-05-07T15:20:16.405Z,3.08
2023-05-07T15:23:02.157Z,3.97
2023-05-07T15:25:50.321Z,4.15
2023-05-07T15:28:40.439Z,6.00
2023-05-07T15:31:26.686Z,3.42
2023-05-07T15:34:12.080Z,5.28
2023-05-07T15:36:58.300Z,5.43
2023-05-07T15:39:43.778Z,3.03
2023-05-07T15:42:29.323Z,4.32
2023-05-07T15:45:15.296Z,9.55
2023-05-07T15:48:01.433Z,4.22
2023-05-07T15:50:47.206Z,3.65
2023-05-07T15:53:32.530Z,5.03
2023-05-07T15:56:17.972Z,18.30
2023-05-07T15:59:04.139Z,3.85
2023-05-07T16:01:49.997Z,3.38
2023-05-07T16:04:36.021Z,3.08
2023-05-07T16:07:22.564Z,3.45
2023-05-07T16:10:09.884Z,3.33
2023-05-07T16:12:55.515Z,2.63
2023-05-07T16:15:41.167Z,4.53
2023-05-07T16:18:26.773Z,3.10
2023-05-07T16:21:12.957Z,5.45
2023-05-07T16:23:58.677Z,3.70
2023-05-07T16:26:44.072Z,2.85
2023-05-07T16:29:29.630Z,3.60
2023-05-07T16:32:15.476Z,3.10
2023-05-07T16:35:01.169Z,3.53
2023-05-07T16:37:46.988Z,4.43
2023-05-07T16:40:32.775Z,3.50
2023-05-07T16:43:18.582Z,7.10
2023-05-07T16:46:04.733Z,5.43
2023-05-07T16:48:50.385Z,5.03
2023-05-07T16:51:36.174Z,5.88
2023-05-07T16:54:21.427Z,3.30
2023-05-07T16:57:07.238Z,2.50
2023-05-07T16:59:53.378Z,3.38
2023-05-07T17:02:39.006Z,2.47
2023-05-07T17:05:26.003Z,2.75
2023-05-07T17:08:13.666Z,3.50
2023-05-07T17:10:59.436Z,2.15
2023-05-07T17:13:45.013Z,2.55
2023-05-07T17:16:30.619Z,4.13
2023-05-07T17:19:16.290Z,2.28
2023-05-07T17:22:01.989Z,5.25
2023-05-07T17:24:47.963Z,2.40
2023-05-07T17:27:34.717Z,2.40
2023-05-07T17:30:30.023Z,2.70
2023-05-07T17:33:22.715Z,3.53
2023-05-07T17:36:08.726Z,3.78
2023-05-07T17:38:57.251Z,3.42
2023-05-07T17:41:45.067Z,5.35
2023-05-07T17:44:30.721Z,7.22
2023-05-07T17:47:16.356Z,4.03
2023-05-07T17:50:02.946Z,2.53
2023-05-07T17:52:48.739Z,4.50
2023-05-07T17:55:34.074Z,3.17
2023-05-07T17:58:19.426Z,2.63
2023-05-07T18:01:05.113Z,3.75
2023-05-07T18:03:50.995Z,4.18
2023-05-07T18:06:36.607Z,7.63
2023-05-07T18:09:21.832Z,2.58
2023-05-07T18:12:07.740Z,2.35
2023-05-07T18:14:53.595Z,3.65
2023-05-07T18:17:39.126Z,3.83
2023-05-07T18:20:25.000Z,6.93
2023-05-07T18:23:10.586Z,4.78
2023-05-07T18:25:56.499Z,5.25
2023-05-07T18:28:42.316Z,5.20
2023-05-07T18:31:27.798Z,3.50
2023-05-07T18:34:14.447Z,2.85
2023-05-07T18:37:00.050Z,3.55
2023-05-07T18:39:46.135Z,3.03
2023-05-07T18:42:35.294Z,2.28
2023-05-07T18:45:23.281Z,3.72
2023-05-07T18:48:08.667Z,5.00
2023-05-07T18:50:54.513Z,4.75
2023-05-07T18:53:43.513Z,2.47
2023-05-07T18:56:31.354Z,2.83
2023-05-07T18:59:17.046Z,4.38
2023-05-07T19:02:02.424Z,4.00
2023-05-07T19:04:48.082Z,3.38
2023-05-07T19:07:33.883Z,3.40
2023-05-07T19:10:19.436Z,3.08
2023-05-07T19:13:05.416Z,6.25
2023-05-07T19:15:51.521Z,5.47
2023-05-07T19:18:37.082Z,4.75
2023-05-07T19:21:22.860Z,5.40
2023-05-07T19:24:08.520Z,6.97
2023-05-07T19:26:54.402Z,4.55
2023-05-07T19:29:40.667Z,5.10
2023-05-07T19:32:26.595Z,7.30
2023-05-07T19:35:12.361Z,4.32
2023-05-07T19:37:58.212Z,10.40
2023-05-07T19:40:43.652Z,17.55
2023-05-07T19:43:35.953Z,14.27
2023-05-07T19:46:21.760Z,10.00
2023-05-07T19:49:07.217Z,5.72
2023-05-07T19:51:53.012Z,5.78
2023-05-07T19:54:39.165Z,5.07
2023-05-07T19:57:24.889Z,4.50
2023-05-07T20:00:11.556Z,4.22
2023-05-07T20:02:57.297Z,5.25
2023-05-07T20:05:43.141Z,4.85
2023-05-07T20:08:28.881Z,6.22
2023-05-07T20:11:14.573Z,5.55
2023-05-07T20:14:01.569Z,11.85
2023-05-07T20:16:48.477Z,6.93
2023-05-07T20:19:33.846Z,8.45
2023-05-07T20:22:19.475Z,9.15
2023-05-07T20:25:08.383Z,11.40
2023-05-07T20:27:54.231Z,10.48
2023-05-07T20:30:40.073Z,8.98
2023-05-07T20:33:27.247Z,11.05
2023-05-07T20:36:12.729Z,10.45
2023-05-07T20:38:58.670Z,11.55
2023-05-07T20:41:44.524Z,13.00
2023-05-07T20:44:36.419Z,13.75
2023-05-07T20:47:22.198Z,13.85
2023-05-07T20:50:07.814Z,14.23
2023-05-07T20:52:53.241Z,14.50
2023-05-07T20:55:39.071Z,17.13
2023-05-07T20:58:25.563Z,17.13
2023-05-07T21:01:11.277Z,19.20
2023-05-07T21:03:57.000Z,14.48
2023-05-07T21:06:43.634Z,19.98
2023-05-07T21:09:29.608Z,17.58
2023-05-07T21:12:15.504Z,20.55
2023-05-07T21:15:00.798Z,18.05
2023-05-07T21:17:46.091Z,21.23
2023-05-07T21:20:31.647Z,23.13
2023-05-07T21:23:17.631Z,18.02
2023-05-07T21:26:04.765Z,21.05
2023-05-07T21:28:51.095Z,18.77
2023-05-07T21:31:37.324Z,19.60
2023-05-07T21:34:22.934Z,19.27
2023-05-07T21:37:12.122Z,16.17
2023-05-07T21:39:57.584Z,17.52
2023-05-07T21:42:43.484Z,19.67
2023-05-07T21:45:28.846Z,18.05
2023-05-07T21:48:15.068Z,20.42
2023-05-07T21:51:04.333Z,19.92
2023-05-07T21:53:50.003Z,21.45
2023-05-07T21:56:35.706Z,19.10
2023-05-07T21:59:21.315Z,20.63
2023-05-07T22:02:06.756Z,17.85
2023-05-07T22:04:52.104Z,19.85
2023-05-07T22:07:37.675Z,20.73
2023-05-07T22:10:23.256Z,27.20
2023-05-07T22:13:08.993Z,19.52
2023-05-07T22:15:57.972Z,19.85
2023-05-07T22:18:44.221Z,20.80
2023-05-07T22:21:30.002Z,20.63
2023-05-07T22:24:15.375Z,19.98
2023-05-07T22:27:01.166Z,22.20
2023-05-07T22:29:46.917Z,23.90
2023-05-07T22:32:32.479Z,19.00
2023-05-07T22:35:18.215Z,17.45
2023-05-07T22:38:03.399Z,24.55
2023-05-07T22:40:49.025Z,19.60
2023-05-07T22:43:34.488Z,21.75
2023-05-07T22:46:20.113Z,17.48
2023-05-07T22:49:05.860Z,20.20
2023-05-07T22:51:51.200Z,19.83
2023-05-07T22:54:36.576Z,25.13
2023-05-07T22:57:22.111Z,26.35
2023-05-07T23:00:08.271Z,20.50
2023-05-07T23:02:53.949Z,21.92
2023-05-07T23:05:40.147Z,19.45
2023-05-07T23:08:25.412Z,17.35
2023-05-07T23:11:10.979Z,18.73
2023-05-07T23:13:56.644Z,21.95
2023-05-07T23:16:42.796Z,20.15
2023-05-07T23:19:28.370Z,20.98
2023-05-07T23:22:15.870Z,17.85
2023-05-07T23:25:01.672Z,22.70
2023-05-07T23:27:49.733Z,18.02
2023-05-07T23:30:35.887Z,23.15
2023-05-07T23:33:21.257Z,21.35
2023-05-07T23:36:07.483Z,19.98
2023-05-07T23:38:53.065Z,21.67
2023-05-07T23:41:38.512Z,20.25
2023-05-07T23:44:24.153Z,18.85
2023-05-07T23:47:09.628Z,21.42
2023-05-07T23:49:55.042Z,19.58
2023-05-07T23:52:40.894Z,19.73
2023-05-07T23:55:26.688Z,18.33
2023-05-07T23:58:12.857Z,19.13
